Aeroporto :
LOGIN :

Iscrizione | Disclaimer

   EN    FR    IT 

 










Sommario :    VFR   VFR Marginale   IFR   IFR Intensivo   IFR Molto Intensivo
Visibilità : 
Base nubi : 
>= 8 km
>= 3000ft
5 / 8 km
1000 / 3000 ft
1500m / 5 km
500 / 1000 ft
800 / 1500m
200 / 500 ft
< 800m
< 200 ft
Simboli :   Temporali  Nebbia  Neve Forte  Precipitazioni Forti  Vento > 20 kt
SIGMETs :   Varie  Temporali  Ghiacco  Turbolenza  Onda orograficha  Ceneri Vulcaniche







- Altitudine del aeroporto : 146 ft
- Codice IATA : RKE


EKRK - Roskilde Tune

ULTIMO METAR :
  • 152120Z AUTO 20006KT 9999NDV NCD 03/M00 Q1026

METARs OBSOLETI :
  • 152050Z AUTO 20004KT 9999NDV NCD 03/M01 Q1027
  • 152020Z AUTO 22006KT 9999NDV NCD 04/00 Q1027
  • 151950Z AUTO 21005KT 9999NDV NCD 03/00 Q1027
  • 151920Z AUTO 19005KT 9999NDV NCD 03/00 Q1028
  • 151850Z AUTO 19002KT 9999NDV NCD 04/01 Q1028

TAF TAF EKRK
Valido dal 15 a 21 ore il 16 a 06 ore UTC


152021Z 1521/1606 21008KT 9999 FEW005
TEMPO 1521/1606 4000 BR
Nessun NOTAM noto per questo aeroporto.



MetMap, La meteo Aeronautica in un colpo d'occhio ! - Copyright ORBIFLY Dicembre 2007 - Disclaimer

ORBIFLY MET'MAP TEAM :

Programmazione e sviluppo : Alexandra Zaïnal
Concezione e sviluppo : Baudouin d'Aumeries
Co-Programmazione e sviluppo : Marc-Olivier Méhu
Supporto tecnico e logistico : Manuel Goepfert
Aiuto per la traduzione : Arnaldo La Scala

Contatto : metmap@orbifly.com




FONTI E CREDITI :

   NOAA